Nrc Patriot II — WDA8587 — position and weather

sailwx.info

Track history (hours):
 
Tides and Currents Weather Stations Pressure Air Temp Water Temp Dewpoint Dewpoint Depression Visibility Wind Speed Wind Dir Waves Ship Positions

Nrc Patriot II

Owner: National Response Corporation, HOUSTON, TX. More information available from US FCC via Universal Licensing System and Coast Guard Vessel Documentation Center.

Last reported at 2014-Oct-31 06:12 UTC. Time now 2014-Oct-31 07:07 UTC.
Position N 33°44' W 118°12'.

Length 30 m; draft 3.5 m.

Type: Port tender. MMSI: 366855940.

Date/timePositionNaut miles runAvg speedWind from/ knotsBaromVisibWave heightAir tempDewpointWater temp
2014-Oct-31 06:12N 33°44' W 118°12'8 9.8
2014-Oct-31 05:24N 33°40' W 118°04'1 1.0
2014-Oct-31 04:33N 33°40' W 118°03'8 6.2
2014-Oct-31 03:18N 33°43' W 118°11'4 2.3
2014-Oct-31 01:24N 33°44' W 118°16'0 0.0
2014-Oct-31 00:33N 33°44' W 118°16'5 4.7
2014-Oct-30 23:33N 33°43' W 118°11'7 6.9
2014-Oct-30 22:29N 33°40' W 118°03'0 0.1
2014-Oct-30 21:33N 33°40' W 118°03'0 0.0
2014-Oct-30 20:33N 33°40' W 118°03'0 0.1
2014-Oct-30 19:33N 33°40' W 118°03'0 0.0
2014-Oct-30 18:33N 33°40' W 118°03'0 0.0
2014-Oct-30 17:33N 33°40' W 118°03'0 0.0
2014-Oct-30 16:33N 33°40' W 118°03'3 2.7
2014-Oct-30 15:33N 33°41' W 118°06'8 8.5
2014-Oct-30 14:33N 33°43' W 118°16'1 1.3
2014-Oct-30 13:33N 33°44' W 118°16'0 0.0
2014-Oct-30 12:33N 33°44' W 118°16'3 2.6
2014-Oct-30 11:33N 33°43' W 118°13'9 9.3
2014-Oct-30 10:33N 33°40' W 118°03'0 0.0
2014-Oct-30 09:33N 33°40' W 118°03'0 0.0
2014-Oct-30 08:24N 33°40' W 118°03'0 0.0
2014-Oct-30 07:25N 33°40' W 118°03'0 0.0
2014-Oct-30 06:33N 33°40' W 118°03'0 0.0
2014-Oct-30 05:24N 33°40' W 118°03'0 0.1
2014-Oct-30 04:33N 33°40' W 118°03'2 1.7
2014-Oct-30 03:33N 33°40' W 118°05'10 9.9
2014-Oct-30 02:33N 33°43' W 118°16'1 1.0
2014-Oct-30 01:33N 33°44' W 118°16'0 0.0
2014-Oct-30 00:33N 33°44' W 118°16'6 5.5
2014-Oct-29 23:32N 33°40' W 118°11'7 7.4
2014-Oct-29 22:33N 33°40' W 118°03'0 0.0
2014-Oct-29 21:33N 33°40' W 118°03'0 0.1
2014-Oct-29 20:32N 33°40' W 118°03'0 0.0
2014-Oct-29 19:33N 33°40' W 118°03'0 0.0
2014-Oct-29 18:33N 33°40' W 118°03'0 0.1
2014-Oct-29 17:33N 33°40' W 118°03'0 0.0
2014-Oct-29 16:30N 33°40' W 118°03'4 3.8
2014-Oct-29 15:33N 33°41' W 118°07'8 8.1
2014-Oct-29 14:33N 33°43' W 118°16'1 0.8
2014-Oct-29 13:33N 33°44' W 118°16'0 0.0
2014-Oct-29 12:33N 33°44' W 118°16'0 0.0
2014-Oct-29 10:32N 33°44' W 118°16'8 7.7
2014-Oct-29 09:34N 33°43' W 118°07'5 5.1
2014-Oct-29 08:34N 33°40' W 118°03'0 0.1
2014-Oct-29 07:34N 33°40' W 118°03'0 0.1
2014-Oct-29 06:33N 33°40' W 118°03'2 1.6
2014-Oct-29 05:33N 33°41' W 118°04'9 9.2
2014-Oct-29 04:33N 33°43' W 118°15'2 1.6
2014-Oct-29 03:32N 33°44' W 118°16'0 0.1
2014-Oct-29 02:34N 33°44' W 118°16'4 4.2
2014-Oct-29 01:34N 33°44' W 118°11'8 8.1
2014-Oct-29 00:33N 33°40' W 118°03'5 4.4
2014-Oct-28 23:29N 33°40' W 118°08'8 8.4
2014-Oct-28 22:33N 33°44' W 118°16'0 0.1
2014-Oct-28 21:33N 33°44' W 118°16'0 0.0
2014-Oct-28 20:29N 33°44' W 118°16'0 0.0
2014-Oct-28 19:30N 33°44' W 118°16'0 0.0
2014-Oct-28 18:33N 33°44' W 118°16'0 0.0
2014-Oct-28 17:34N 33°44' W 118°16'0 0.0
2014-Oct-28 16:31N 33°44' W 118°16'0 0.4
2014-Oct-28 15:33N 33°44' W 118°16'0 0.1
2014-Oct-28 12:26N 33°44' W 118°16'5 6.1
2014-Oct-28 11:33N 33°43' W 118°10'7 5.8
2014-Oct-28 10:21N 33°40' W 118°03'0 0.1
2014-Oct-28 09:13N 33°40' W 118°03'0 0.0
2014-Oct-28 05:30N 33°40' W 118°03'9 9.2
2014-Oct-28 04:33N 33°44' W 118°12'3 3.3
2014-Oct-28 03:32N 33°44' W 118°16'0 0.0
2014-Oct-28 02:34N 33°44' W 118°16'0 0.0
2014-Oct-28 01:33N 33°44' W 118°16'1 1.1
2014-Oct-28 00:28N 33°43' W 118°16'11 8.5
2014-Oct-27 23:09N 33°40' W 118°03'0 0.0
2014-Oct-27 19:24N 33°40' W 118°03'0 0.1
2014-Oct-27 18:32N 33°40' W 118°03'0 0.0
2014-Oct-27 17:32N 33°40' W 118°03'8 8.0
2014-Oct-27 16:33N 33°43' W 118°11'4 1.9
2014-Oct-27 14:14N 33°44' W 118°16'0 0.0
2014-Oct-27 13:31N 33°44' W 118°16'0 0.0
2014-Oct-27 12:31N 33°44' W 118°16'3 2.7
2014-Oct-27 11:22N 33°44' W 118°13'7 8.6
2014-Oct-27 10:32N 33°41' W 118°05'2 2.0
2014-Oct-27 09:28N 33°40' W 118°03'0 0.0
2014-Oct-27 08:28N 33°40' W 118°03'0 0.0
2014-Oct-27 07:32N 33°40' W 118°03'0 0.0
2014-Oct-27 06:33N 33°40' W 118°03'0 0.0
2014-Oct-27 04:34N 33°40' W 118°03'3 2.6
2014-Oct-27 03:33N 33°41' W 118°05'9 8.3
2014-Oct-27 02:27N 33°43' W 118°16'1 1.2
2014-Oct-27 01:32N 33°44' W 118°16'0 0.1
2014-Oct-27 00:34N 33°44' W 118°16'0 0.0
2014-Oct-26 23:32N 33°44' W 118°16'0 0.0
2014-Oct-26 09:23N 33°44' W 118°16'0 0.0
2014-Oct-26 02:32N 33°44' W 118°16'0 0.0
2014-Oct-26 01:32N 33°44' W 118°16'1 1.2
2014-Oct-26 00:33N 33°43' W 118°16'6 6.2
2014-Oct-25 23:33N 33°42' W 118°08'5 5.1
2014-Oct-25 22:33N 33°40' W 118°03'0 0.0
2014-Oct-25 21:33N 33°40' W 118°03'0 0.1
2014-Oct-25 20:32N 33°40' W 118°03'0 0.0
2014-Oct-25 19:33N 33°40' W 118°03'0 0.1
2014-Oct-25 18:33N 33°40' W 118°03'6 6.1
2014-Oct-25 17:33N 33°43' W 118°09'6 6.2
2014-Oct-25 16:33N 33°44' W 118°16'0 0.0
2014-Oct-25 15:33N 33°44' W 118°16'0 0.0
2014-Oct-25 14:33N 33°44' W 118°16'0 0.0
2014-Oct-25 13:33N 33°44' W 118°16'1 1.4
2014-Oct-25 12:32N 33°43' W 118°15'8 8.1
2014-Oct-25 11:33N 33°42' W 118°06'3 3.5
2014-Oct-25 10:33N 33°40' W 118°03'0 0.1
2014-Oct-25 09:33N 33°40' W 118°03'0 0.0
2014-Oct-25 08:33N 33°40' W 118°03'0 0.0
2014-Oct-25 07:33N 33°40' W 118°03'0 0.2
2014-Oct-25 06:33N 33°40' W 118°03'6 6.4
2014-Oct-25 05:33N 33°44' W 118°09'6 6.3
2014-Oct-25 04:33N 33°44' W 118°16'0 0.0
2014-Oct-25 03:33N 33°44' W 118°16'0 0.0
2014-Oct-25 02:33N 33°44' W 118°16'0 0.0
2014-Oct-25 01:32N 33°44' W 118°16'7 6.9
2014-Oct-25 00:33N 33°42' W 118°09'5 5.4
2014-Oct-24 23:33N 33°40' W 118°03'0 0.0
2014-Oct-24 22:33N 33°40' W 118°03'0 0.1
2014-Oct-24 21:33N 33°40' W 118°03'0 0.0
2014-Oct-24 20:33N 33°40' W 118°03'0 0.0
2014-Oct-24 19:33N 33°40' W 118°03'4 4.1
2014-Oct-24 18:33N 33°42' W 118°07'8 7.9
2014-Oct-24 17:33N 33°44' W 118°16'0 0.1
2014-Oct-24 16:33N 33°44' W 118°16'0 0.1
2014-Oct-24 15:33N 33°44' W 118°16'0 0.0
2014-Oct-24 14:33N 33°44' W 118°16'0 0.1
2014-Oct-24 13:33N 33°44' W 118°16'7 6.9
2014-Oct-24 12:33N 33°44' W 118°08'6 5.9
2014-Oct-24 11:33N 33°40' W 118°03'0 0.2
2014-Oct-24 10:33N 33°40' W 118°03'0 0.0
2014-Oct-24 09:33N 33°40' W 118°03'0 0.0
2014-Oct-24 08:33N 33°40' W 118°03'0 0.1
2014-Oct-24 07:33N 33°40' W 118°03'0 0.1
2014-Oct-24 06:33N 33°40' W 118°03'0 0.2
2014-Oct-24 05:33N 33°40' W 118°03'0 0.1
2014-Oct-24 04:33N 33°40' W 118°03'3 2.9
2014-Oct-24 03:33N 33°42' W 118°05'9 9.1
2014-Oct-24 02:33N 33°43' W 118°16'1 0.9
2014-Oct-24 01:33N 33°44' W 118°16'0 0.0
2014-Oct-24 00:33N 33°44' W 118°16'0 0.0
2014-Oct-23 23:34N 33°44' W 118°16'3 2.8
2014-Oct-23 22:34N 33°43' W 118°13'9 9.0
2014-Oct-23 21:34N 33°40' W 118°03'0 0.3
2014-Oct-23 20:33N 33°40' W 118°03'0 0.0
2014-Oct-23 19:33N 33°40' W 118°03'0 0.0
2014-Oct-23 18:10N 33°40' W 118°03'0 0.0
2014-Oct-23 17:33N 33°40' W 118°03'0 0.1
2014-Oct-23 16:32N 33°40' W 118°03'0 0.2
2014-Oct-23 15:34N 33°40' W 118°03'7 6.6
2014-Oct-23 14:34N 33°43' W 118°10'5 5.5
2014-Oct-23 13:33N 33°44' W 118°16'0 0.0
2014-Oct-23 12:33N 33°44' W 118°16'4 4.3
2014-Oct-23 11:33N 33°44' W 118°11'8 8.0
2014-Oct-23 10:33N 33°40' W 118°03'0 0.1
2014-Oct-23 09:33N 33°40' W 118°03'0 0.1
2014-Oct-23 08:33N 33°40' W 118°03'0 0.0
2014-Oct-23 07:33N 33°40' W 118°03'0 0.1
2014-Oct-23 06:33N 33°40' W 118°03'8 7.6
2014-Oct-23 05:33N 33°44' W 118°11'5 4.7
2014-Oct-23 04:33N 33°44' W 118°16'0 0.0
2014-Oct-23 03:33N 33°44' W 118°16'3 3.3
2014-Oct-23 02:33N 33°44' W 118°12'9 8.9
2014-Oct-23 01:33N 33°40' W 118°03'0 0.0
2014-Oct-23 00:33N 33°40' W 118°03'0 0.1
2014-Oct-22 23:33N 33°40' W 118°03'0 0.0
2014-Oct-22 22:33N 33°40' W 118°03'0 0.0
2014-Oct-22 21:32N 33°40' W 118°03'0 0.0
2014-Oct-22 20:33N 33°40' W 118°03'0 0.0
2014-Oct-22 17:33N 33°40' W 118°03'4 4.3
2014-Oct-22 16:32N 33°42' W 118°07'8 7.5
2014-Oct-22 15:30N 33°44' W 118°16'0 0.0
2014-Oct-22 14:32N 33°44' W 118°16'4 3.7
2014-Oct-22 13:33N 33°44' W 118°12'9 7.3
2014-Oct-22 12:23N 33°40' W 118°03'0 0.1
2014-Oct-22 11:22N 33°40' W 118°03'0 0.1
2014-Oct-22 10:33N 33°40' W 118°03'0 0.0
2014-Oct-22 09:33N 33°40' W 118°03'0 0.0
2014-Oct-22 08:32N 33°40' W 118°03'0 0.0
2014-Oct-22 07:33N 33°40' W 118°03'0 0.0
2014-Oct-22 06:33N 33°40' W 118°03'0 0.1
2014-Oct-22 05:33N 33°40' W 118°03'0 0.0
2014-Oct-22 04:33N 33°40' W 118°03'0 0.1
2014-Oct-22 03:33N 33°40' W 118°03'7 7.1
2014-Oct-22 02:33N 33°44' W 118°10'5 5.1
2014-Oct-22 01:30N 33°44' W 118°16'0 0.0
2014-Oct-22 00:33N 33°44' W 118°16'0 0.4
2014-Oct-21 23:33N 33°44' W 118°16'8 8.4
2014-Oct-21 22:33N 33°42' W 118°06'4 3.6
2014-Oct-21 21:33N 33°40' W 118°03'0 0.0
2014-Oct-21 20:24N 33°40' W 118°03'0 0.1
2014-Oct-21 19:30N 33°40' W 118°03'3 1.1
2014-Oct-21 17:07N 33°41' W 118°05'5 9.8
2014-Oct-21 16:33N 33°44' W 118°11'4 2.0
2014-Oct-21 14:30N 33°44' W 118°16'7 7.6
2014-Oct-21 13:31N 33°43' W 118°08'5 4.9
2014-Oct-21 12:28N 33°40' W 118°03'0 0.1
2014-Oct-21 11:28N 33°40' W 118°03'0 0.0
2014-Oct-21 10:21N 33°40' W 118°03'0 0.1
2014-Oct-21 09:31N 33°40' W 118°03'0 0.2
2014-Oct-21 08:32N 33°40' W 118°03'8 8.6
2014-Oct-21 07:33N 33°44' W 118°12'4 3.1
2014-Oct-21 06:18N 33°44' W 118°16'  
Track history (hours):
 
Tides and Currents Weather Stations Pressure Air Temp Water Temp Dewpoint Dewpoint Depression Visibility Wind Speed Wind Dir Waves Ship Positions

Nrc Patriot II

Owner: National Response Corporation, HOUSTON, TX. More information available from US FCC via Universal Licensing System and Coast Guard Vessel Documentation Center.

Last reported at 2014-Oct-31 06:12 UTC. Time now 2014-Oct-31 07:07 UTC.
Position N 33°44' W 118°12'.

Length 30 m; draft 3.5 m.

Type: Port tender. MMSI: 366855940.

Date/timePositionNaut miles runAvg speedWind from/ knotsBaromVisibWave heightAir tempDewpointWater temp
2014-Oct-31 06:12N 33°44' W 118°12'8 9.8
2014-Oct-31 05:24N 33°40' W 118°04'1 1.0
2014-Oct-31 04:33N 33°40' W 118°03'8 6.2
2014-Oct-31 03:18N 33°43' W 118°11'4 2.3
2014-Oct-31 01:24N 33°44' W 118°16'0 0.0
2014-Oct-31 00:33N 33°44' W 118°16'5 4.7
2014-Oct-30 23:33N 33°43' W 118°11'7 6.9
2014-Oct-30 22:29N 33°40' W 118°03'0 0.1
2014-Oct-30 21:33N 33°40' W 118°03'0 0.0
2014-Oct-30 20:33N 33°40' W 118°03'0 0.1
2014-Oct-30 19:33N 33°40' W 118°03'0 0.0
2014-Oct-30 18:33N 33°40' W 118°03'0 0.0
2014-Oct-30 17:33N 33°40' W 118°03'0 0.0
2014-Oct-30 16:33N 33°40' W 118°03'3 2.7
2014-Oct-30 15:33N 33°41' W 118°06'8 8.5
2014-Oct-30 14:33N 33°43' W 118°16'1 1.3
2014-Oct-30 13:33N 33°44' W 118°16'0 0.0
2014-Oct-30 12:33N 33°44' W 118°16'3 2.6
2014-Oct-30 11:33N 33°43' W 118°13'9 9.3
2014-Oct-30 10:33N 33°40' W 118°03'0 0.0
2014-Oct-30 09:33N 33°40' W 118°03'0 0.0
2014-Oct-30 08:24N 33°40' W 118°03'0 0.0
2014-Oct-30 07:25N 33°40' W 118°03'0 0.0
2014-Oct-30 06:33N 33°40' W 118°03'0 0.0
2014-Oct-30 05:24N 33°40' W 118°03'0 0.1
2014-Oct-30 04:33N 33°40' W 118°03'2 1.7
2014-Oct-30 03:33N 33°40' W 118°05'10 9.9
2014-Oct-30 02:33N 33°43' W 118°16'1 1.0
2014-Oct-30 01:33N 33°44' W 118°16'0 0.0
2014-Oct-30 00:33N 33°44' W 118°16'6 5.5
2014-Oct-29 23:32N 33°40' W 118°11'7 7.4
2014-Oct-29 22:33N 33°40' W 118°03'0 0.0
2014-Oct-29 21:33N 33°40' W 118°03'0 0.1
2014-Oct-29 20:32N 33°40' W 118°03'0 0.0
2014-Oct-29 19:33N 33°40' W 118°03'0 0.0
2014-Oct-29 18:33N 33°40' W 118°03'0 0.1
2014-Oct-29 17:33N 33°40' W 118°03'0 0.0
2014-Oct-29 16:30N 33°40' W 118°03'4 3.8
2014-Oct-29 15:33N 33°41' W 118°07'8 8.1
2014-Oct-29 14:33N 33°43' W 118°16'1 0.8
2014-Oct-29 13:33N 33°44' W 118°16'0 0.0
2014-Oct-29 12:33N 33°44' W 118°16'0 0.0
2014-Oct-29 10:32N 33°44' W 118°16'8 7.7
2014-Oct-29 09:34N 33°43' W 118°07'5 5.1
2014-Oct-29 08:34N 33°40' W 118°03'0 0.1
2014-Oct-29 07:34N 33°40' W 118°03'0 0.1
2014-Oct-29 06:33N 33°40' W 118°03'2 1.6
2014-Oct-29 05:33N 33°41' W 118°04'9 9.2
2014-Oct-29 04:33N 33°43' W 118°15'2 1.6
2014-Oct-29 03:32N 33°44' W 118°16'0 0.1
2014-Oct-29 02:34N 33°44' W 118°16'4 4.2
2014-Oct-29 01:34N 33°44' W 118°11'8 8.1
2014-Oct-29 00:33N 33°40' W 118°03'5 4.4
2014-Oct-28 23:29N 33°40' W 118°08'8 8.4
2014-Oct-28 22:33N 33°44' W 118°16'0 0.1
2014-Oct-28 21:33N 33°44' W 118°16'0 0.0
2014-Oct-28 20:29N 33°44' W 118°16'0 0.0
2014-Oct-28 19:30N 33°44' W 118°16'0 0.0
2014-Oct-28 18:33N 33°44' W 118°16'0 0.0
2014-Oct-28 17:34N 33°44' W 118°16'0 0.0
2014-Oct-28 16:31N 33°44' W 118°16'0 0.4
2014-Oct-28 15:33N 33°44' W 118°16'0 0.1
2014-Oct-28 12:26N 33°44' W 118°16'5 6.1
2014-Oct-28 11:33N 33°43' W 118°10'7 5.8
2014-Oct-28 10:21N 33°40' W 118°03'0 0.1
2014-Oct-28 09:13N 33°40' W 118°03'0 0.0
2014-Oct-28 05:30N 33°40' W 118°03'9 9.2
2014-Oct-28 04:33N 33°44' W 118°12'3 3.3
2014-Oct-28 03:32N 33°44' W 118°16'0 0.0
2014-Oct-28 02:34N 33°44' W 118°16'0 0.0
2014-Oct-28 01:33N 33°44' W 118°16'1 1.1
2014-Oct-28 00:28N 33°43' W 118°16'11 8.5
2014-Oct-27 23:09N 33°40' W 118°03'0 0.0
2014-Oct-27 19:24N 33°40' W 118°03'0 0.1
2014-Oct-27 18:32N 33°40' W 118°03'0 0.0
2014-Oct-27 17:32N 33°40' W 118°03'8 8.0
2014-Oct-27 16:33N 33°43' W 118°11'4 1.9
2014-Oct-27 14:14N 33°44' W 118°16'0 0.0
2014-Oct-27 13:31N 33°44' W 118°16'0 0.0
2014-Oct-27 12:31N 33°44' W 118°16'3 2.7
2014-Oct-27 11:22N 33°44' W 118°13'7 8.6
2014-Oct-27 10:32N 33°41' W 118°05'2 2.0
2014-Oct-27 09:28N 33°40' W 118°03'0 0.0
2014-Oct-27 08:28N 33°40' W 118°03'0 0.0
2014-Oct-27 07:32N 33°40' W 118°03'0 0.0
2014-Oct-27 06:33N 33°40' W 118°03'0 0.0
2014-Oct-27 04:34N 33°40' W 118°03'3 2.6
2014-Oct-27 03:33N 33°41' W 118°05'9 8.3
2014-Oct-27 02:27N 33°43' W 118°16'1 1.2
2014-Oct-27 01:32N 33°44' W 118°16'0 0.1
2014-Oct-27 00:34N 33°44' W 118°16'0 0.0
2014-Oct-26 23:32N 33°44' W 118°16'0 0.0
2014-Oct-26 09:23N 33°44' W 118°16'0 0.0
2014-Oct-26 02:32N 33°44' W 118°16'0 0.0
2014-Oct-26 01:32N 33°44' W 118°16'1 1.2
2014-Oct-26 00:33N 33°43' W 118°16'6 6.2
2014-Oct-25 23:33N 33°42' W 118°08'5 5.1
2014-Oct-25 22:33N 33°40' W 118°03'0 0.0
2014-Oct-25 21:33N 33°40' W 118°03'0 0.1
2014-Oct-25 20:32N 33°40' W 118°03'0 0.0
2014-Oct-25 19:33N 33°40' W 118°03'0 0.1
2014-Oct-25 18:33N 33°40' W 118°03'6 6.1
2014-Oct-25 17:33N 33°43' W 118°09'6 6.2
2014-Oct-25 16:33N 33°44' W 118°16'0 0.0
2014-Oct-25 15:33N 33°44' W 118°16'0 0.0
2014-Oct-25 14:33N 33°44' W 118°16'0 0.0
2014-Oct-25 13:33N 33°44' W 118°16'1 1.4
2014-Oct-25 12:32N 33°43' W 118°15'8 8.1
2014-Oct-25 11:33N 33°42' W 118°06'3 3.5
2014-Oct-25 10:33N 33°40' W 118°03'0 0.1
2014-Oct-25 09:33N 33°40' W 118°03'0 0.0
2014-Oct-25 08:33N 33°40' W 118°03'0 0.0
2014-Oct-25 07:33N 33°40' W 118°03'0 0.2
2014-Oct-25 06:33N 33°40' W 118°03'6 6.4
2014-Oct-25 05:33N 33°44' W 118°09'6 6.3
2014-Oct-25 04:33N 33°44' W 118°16'0 0.0
2014-Oct-25 03:33N 33°44' W 118°16'0 0.0
2014-Oct-25 02:33N 33°44' W 118°16'0 0.0
2014-Oct-25 01:32N 33°44' W 118°16'7 6.9
2014-Oct-25 00:33N 33°42' W 118°09'5 5.4
2014-Oct-24 23:33N 33°40' W 118°03'0 0.0
2014-Oct-24 22:33N 33°40' W 118°03'0 0.1
2014-Oct-24 21:33N 33°40' W 118°03'0 0.0
2014-Oct-24 20:33N 33°40' W 118°03'0 0.0
2014-Oct-24 19:33N 33°40' W 118°03'4 4.1
2014-Oct-24 18:33N 33°42' W 118°07'8 7.9
2014-Oct-24 17:33N 33°44' W 118°16'0 0.1
2014-Oct-24 16:33N 33°44' W 118°16'0 0.1
2014-Oct-24 15:33N 33°44' W 118°16'0 0.0
2014-Oct-24 14:33N 33°44' W 118°16'0 0.1
2014-Oct-24 13:33N 33°44' W 118°16'7 6.9
2014-Oct-24 12:33N 33°44' W 118°08'6 5.9
2014-Oct-24 11:33N 33°40' W 118°03'0 0.2
2014-Oct-24 10:33N 33°40' W 118°03'0 0.0
2014-Oct-24 09:33N 33°40' W 118°03'0 0.0
2014-Oct-24 08:33N 33°40' W 118°03'0 0.1
2014-Oct-24 07:33N 33°40' W 118°03'0 0.1
2014-Oct-24 06:33N 33°40' W 118°03'0 0.2
2014-Oct-24 05:33N 33°40' W 118°03'0 0.1
2014-Oct-24 04:33N 33°40' W 118°03'3 2.9
2014-Oct-24 03:33N 33°42' W 118°05'9 9.1
2014-Oct-24 02:33N 33°43' W 118°16'1 0.9
2014-Oct-24 01:33N 33°44' W 118°16'0 0.0
2014-Oct-24 00:33N 33°44' W 118°16'0 0.0
2014-Oct-23 23:34N 33°44' W 118°16'3 2.8
2014-Oct-23 22:34N 33°43' W 118°13'9 9.0
2014-Oct-23 21:34N 33°40' W 118°03'0 0.3
2014-Oct-23 20:33N 33°40' W 118°03'0 0.0
2014-Oct-23 19:33N 33°40' W 118°03'0 0.0
2014-Oct-23 18:10N 33°40' W 118°03'0 0.0
2014-Oct-23 17:33N 33°40' W 118°03'0 0.1
2014-Oct-23 16:32N 33°40' W 118°03'0 0.2
2014-Oct-23 15:34N 33°40' W 118°03'7 6.6
2014-Oct-23 14:34N 33°43' W 118°10'5 5.5
2014-Oct-23 13:33N 33°44' W 118°16'0 0.0
2014-Oct-23 12:33N 33°44' W 118°16'4 4.3
2014-Oct-23 11:33N 33°44' W 118°11'8 8.0
2014-Oct-23 10:33N 33°40' W 118°03'0 0.1
2014-Oct-23 09:33N 33°40' W 118°03'0 0.1
2014-Oct-23 08:33N 33°40' W 118°03'0 0.0
2014-Oct-23 07:33N 33°40' W 118°03'0 0.1
2014-Oct-23 06:33N 33°40' W 118°03'8 7.6
2014-Oct-23 05:33N 33°44' W 118°11'5 4.7
2014-Oct-23 04:33N 33°44' W 118°16'0 0.0
2014-Oct-23 03:33N 33°44' W 118°16'3 3.3
2014-Oct-23 02:33N 33°44' W 118°12'9 8.9
2014-Oct-23 01:33N 33°40' W 118°03'0 0.0
2014-Oct-23 00:33N 33°40' W 118°03'0 0.1
2014-Oct-22 23:33N 33°40' W 118°03'0 0.0
2014-Oct-22 22:33N 33°40' W 118°03'0 0.0
2014-Oct-22 21:32N 33°40' W 118°03'0 0.0
2014-Oct-22 20:33N 33°40' W 118°03'0 0.0
2014-Oct-22 17:33N 33°40' W 118°03'4 4.3
2014-Oct-22 16:32N 33°42' W 118°07'8 7.5
2014-Oct-22 15:30N 33°44' W 118°16'0 0.0
2014-Oct-22 14:32N 33°44' W 118°16'4 3.7
2014-Oct-22 13:33N 33°44' W 118°12'9 7.3
2014-Oct-22 12:23N 33°40' W 118°03'0 0.1
2014-Oct-22 11:22N 33°40' W 118°03'0 0.1
2014-Oct-22 10:33N 33°40' W 118°03'0 0.0
2014-Oct-22 09:33N 33°40' W 118°03'0 0.0
2014-Oct-22 08:32N 33°40' W 118°03'0 0.0
2014-Oct-22 07:33N 33°40' W 118°03'0 0.0
2014-Oct-22 06:33N 33°40' W 118°03'0 0.1
2014-Oct-22 05:33N 33°40' W 118°03'0 0.0
2014-Oct-22 04:33N 33°40' W 118°03'0 0.1
2014-Oct-22 03:33N 33°40' W 118°03'7 7.1
2014-Oct-22 02:33N 33°44' W 118°10'5 5.1
2014-Oct-22 01:30N 33°44' W 118°16'0 0.0
2014-Oct-22 00:33N 33°44' W 118°16'0 0.4
2014-Oct-21 23:33N 33°44' W 118°16'8 8.4
2014-Oct-21 22:33N 33°42' W 118°06'4 3.6
2014-Oct-21 21:33N 33°40' W 118°03'0 0.0
2014-Oct-21 20:24N 33°40' W 118°03'0 0.1
2014-Oct-21 19:30N 33°40' W 118°03'3 1.1
2014-Oct-21 17:07N 33°41' W 118°05'5 9.8
2014-Oct-21 16:33N 33°44' W 118°11'4 2.0
2014-Oct-21 14:30N 33°44' W 118°16'7 7.6
2014-Oct-21 13:31N 33°43' W 118°08'5 4.9
2014-Oct-21 12:28N 33°40' W 118°03'0 0.1
2014-Oct-21 11:28N 33°40' W 118°03'0 0.0
2014-Oct-21 10:21N 33°40' W 118°03'0 0.1
2014-Oct-21 09:31N 33°40' W 118°03'0 0.2
2014-Oct-21 08:32N 33°40' W 118°03'8 8.6
2014-Oct-21 07:33N 33°44' W 118°12'4 3.1
2014-Oct-21 06:18N 33°44' W 118°16'  

Dump ship's entire track history